createdAt,value
2019-01-24T00:00:29.054Z,8.35
2019-01-24T00:03:01.617Z,8.53
2019-01-24T00:05:34.084Z,8.15
2019-01-24T00:08:05.659Z,8.28
2019-01-24T00:10:38.194Z,9.15
2019-01-24T00:13:10.808Z,8.18
2019-01-24T00:15:43.290Z,8.38
2019-01-24T00:18:14.887Z,7.75
2019-01-24T00:20:46.438Z,7.85
2019-01-24T00:23:17.961Z,7.72
2019-01-24T00:25:50.428Z,8.08
2019-01-24T00:28:22.029Z,7.75
2019-01-24T00:30:54.522Z,7.45
2019-01-24T00:33:28.601Z,8.20
2019-01-24T00:36:00.128Z,7.67
2019-01-24T00:38:31.645Z,7.37
2019-01-24T00:41:03.156Z,7.67
2019-01-24T00:43:35.622Z,8.08
2019-01-24T00:46:08.172Z,7.20
2019-01-24T00:48:39.754Z,8.10
2019-01-24T00:51:12.291Z,8.03
2019-01-24T00:53:44.808Z,7.78
2019-01-24T00:56:16.372Z,7.85
2019-01-24T00:58:48.906Z,7.65
2019-01-24T01:01:20.475Z,8.78
2019-01-24T01:03:51.990Z,8.00
2019-01-24T01:06:24.537Z,7.15
2019-01-24T01:08:57.072Z,7.92
2019-01-24T01:11:29.631Z,7.37
2019-01-24T01:14:01.167Z,7.95
2019-01-24T01:16:33.625Z,7.40
2019-01-24T01:19:05.193Z,7.17
2019-01-24T01:21:36.701Z,8.20
2019-01-24T01:24:09.210Z,7.05
2019-01-24T01:26:40.690Z,7.25
2019-01-24T01:29:12.358Z,7.35
2019-01-24T01:31:44.845Z,7.53
2019-01-24T01:34:16.355Z,6.95
2019-01-24T01:36:48.869Z,7.30
2019-01-24T01:39:20.401Z,7.17
2019-01-24T01:41:51.948Z,7.28
2019-01-24T01:44:24.443Z,7.65
2019-01-24T01:46:56.991Z,7.10
2019-01-24T01:49:29.554Z,8.60
2019-01-24T01:52:02.005Z,6.97
2019-01-24T01:54:33.568Z,6.97
2019-01-24T01:57:06.039Z,7.33
2019-01-24T01:59:38.554Z,7.22
2019-01-24T02:02:11.095Z,6.87
2019-01-24T02:04:43.605Z,7.62
2019-01-24T02:07:16.069Z,7.92
2019-01-24T02:09:48.582Z,7.05
2019-01-24T02:12:21.100Z,7.17
2019-01-24T02:14:53.631Z,8.08
2019-01-24T02:17:26.128Z,8.30
2019-01-24T02:19:58.637Z,7.97
2019-01-24T02:22:31.120Z,7.35
2019-01-24T02:25:04.049Z,7.30
2019-01-24T02:27:36.544Z,7.28
2019-01-24T02:32:44.967Z,6.95
2019-01-24T02:35:17.802Z,7.22
2019-01-24T02:37:50.345Z,7.33
2019-01-24T02:40:22.860Z,7.20
2019-01-24T02:42:55.359Z,7.05
2019-01-24T02:45:28.051Z,7.08
2019-01-24T02:48:01.210Z,6.33
2019-01-24T02:50:33.742Z,7.10
2019-01-24T02:53:06.268Z,6.42
2019-01-24T02:55:38.744Z,6.60
2019-01-24T02:58:11.318Z,6.65
2019-01-24T03:00:43.804Z,6.60
2019-01-24T03:03:16.352Z,6.25
2019-01-24T03:05:48.838Z,6.87
2019-01-24T03:08:21.364Z,6.67
2019-01-24T03:10:53.813Z,6.85
2019-01-24T03:13:26.373Z,10.05
2019-01-24T03:15:58.972Z,9.03
2019-01-24T03:18:31.536Z,8.70
2019-01-24T03:21:04.014Z,8.75
2019-01-24T03:23:36.537Z,8.40
2019-01-24T03:26:09.046Z,8.00
2019-01-24T03:28:41.651Z,8.10
2019-01-24T03:31:14.168Z,6.80
2019-01-24T03:33:47.042Z,7.30
2019-01-24T03:36:19.843Z,7.03
2019-01-24T03:38:52.402Z,6.40
2019-01-24T03:41:24.895Z,6.20
2019-01-24T03:43:57.384Z,6.20
2019-01-24T03:46:29.933Z,5.97
2019-01-24T03:49:02.479Z,6.30
2019-01-24T03:51:34.994Z,5.92
2019-01-24T03:54:07.511Z,6.05
2019-01-24T03:56:40.011Z,6.30
2019-01-24T03:59:12.516Z,5.85
2019-01-24T04:01:45.023Z,6.20
2019-01-24T04:04:17.737Z,6.58
2019-01-24T04:06:51.719Z,5.83
2019-01-24T04:09:24.288Z,6.22
2019-01-24T04:11:56.794Z,5.78
2019-01-24T04:14:29.313Z,6.22
2019-01-24T04:17:01.825Z,5.83
2019-01-24T04:19:34.364Z,6.12
2019-01-24T04:22:06.869Z,6.17
2019-01-24T04:24:39.354Z,6.37
2019-01-24T04:27:11.892Z,6.15
2019-01-24T04:29:44.457Z,6.03
2019-01-24T04:32:16.961Z,6.67
2019-01-24T04:34:49.496Z,7.17
2019-01-24T04:37:22.018Z,6.53
2019-01-24T04:39:54.476Z,6.35
2019-01-24T04:42:27.031Z,6.25
2019-01-24T04:44:59.548Z,6.78
2019-01-24T04:47:32.030Z,6.53
2019-01-24T04:50:04.600Z,6.08
2019-01-24T04:52:37.141Z,6.70
2019-01-24T04:55:11.525Z,6.47
2019-01-24T04:57:44.025Z,6.33
2019-01-24T05:00:22.181Z,5.97
2019-01-24T05:02:54.674Z,6.40
2019-01-24T05:05:28.220Z,6.78
2019-01-24T05:08:00.737Z,7.40
2019-01-24T05:10:33.302Z,6.70
2019-01-24T05:13:05.794Z,6.70
2019-01-24T05:15:38.340Z,6.10
2019-01-24T05:18:10.871Z,6.70
2019-01-24T05:20:43.380Z,5.95
2019-01-24T05:23:15.871Z,6.42
2019-01-24T05:25:48.371Z,6.85
2019-01-24T05:28:20.863Z,6.33
2019-01-24T05:30:53.343Z,6.17
2019-01-24T05:33:25.860Z,5.90
2019-01-24T05:35:58.393Z,5.85
2019-01-24T05:38:30.905Z,6.22
2019-01-24T05:41:03.550Z,6.80
2019-01-24T05:43:36.043Z,6.37
2019-01-24T05:46:08.564Z,6.17
2019-01-24T05:48:41.059Z,5.90
2019-01-24T05:51:13.524Z,5.78
2019-01-24T05:53:46.027Z,5.80
2019-01-24T05:56:18.536Z,6.78
2019-01-24T05:58:51.053Z,6.10
2019-01-24T06:01:23.917Z,5.37
2019-01-24T06:03:56.446Z,6.37
2019-01-24T06:06:28.963Z,6.37
2019-01-24T06:09:01.483Z,5.83
2019-01-24T06:11:34.000Z,6.20
2019-01-24T06:14:06.489Z,6.25
2019-01-24T06:16:39.028Z,6.42
2019-01-24T06:19:12.085Z,6.20
2019-01-24T06:21:44.633Z,5.58
2019-01-24T06:24:17.090Z,6.08
2019-01-24T06:26:49.634Z,5.97
2019-01-24T06:29:22.134Z,5.58
2019-01-24T06:31:54.634Z,6.30
2019-01-24T06:34:27.096Z,5.10
2019-01-24T06:36:59.674Z,5.50
2019-01-24T06:39:32.162Z,5.92
2019-01-24T06:42:04.745Z,5.40
2019-01-24T06:44:37.242Z,5.87
2019-01-24T06:47:09.726Z,5.92
2019-01-24T06:49:42.251Z,5.65
2019-01-24T06:52:16.036Z,5.67
2019-01-24T06:54:48.866Z,6.22
2019-01-24T06:57:21.388Z,6.28
2019-01-24T06:59:53.881Z,5.87
2019-01-24T07:02:26.398Z,5.75
2019-01-24T07:04:58.911Z,5.30
2019-01-24T07:07:31.418Z,6.00
2019-01-24T07:10:03.913Z,6.22
2019-01-24T07:12:36.406Z,6.22
2019-01-24T07:15:11.282Z,5.75
2019-01-24T07:17:43.774Z,5.40
2019-01-24T07:20:17.472Z,5.58
2019-01-24T07:22:49.923Z,5.83
2019-01-24T07:25:26.590Z,6.30
2019-01-24T07:27:59.088Z,5.85
2019-01-24T07:30:31.620Z,5.95
2019-01-24T07:33:04.145Z,6.60
2019-01-24T07:35:36.847Z,6.28
2019-01-24T07:38:09.363Z,6.00
2019-01-24T07:40:41.827Z,5.58
2019-01-24T07:43:15.726Z,6.50
2019-01-24T07:45:48.097Z,5.92
2019-01-24T07:48:20.621Z,6.37
2019-01-24T07:50:53.164Z,5.80
2019-01-24T07:53:25.679Z,6.00
2019-01-24T07:55:58.211Z,6.35
2019-01-24T07:58:30.678Z,6.15
2019-01-24T08:01:03.233Z,6.28
2019-01-24T08:03:35.728Z,5.60
2019-01-24T08:06:09.261Z,6.35
2019-01-24T08:08:41.935Z,5.80
2019-01-24T08:11:18.238Z,5.70
2019-01-24T08:13:50.769Z,6.03
2019-01-24T08:16:23.258Z,5.55
2019-01-24T08:18:55.789Z,6.37
2019-01-24T08:21:28.240Z,5.87
2019-01-24T08:24:00.822Z,6.45
2019-01-24T08:26:33.332Z,6.62
2019-01-24T08:29:05.843Z,6.47
2019-01-24T08:31:38.350Z,6.25
2019-01-24T08:34:10.859Z,6.78
2019-01-24T08:36:43.362Z,6.20
2019-01-24T08:39:15.882Z,6.55
2019-01-24T08:41:48.372Z,6.20
2019-01-24T08:44:20.941Z,5.78
2019-01-24T08:46:53.445Z,6.62
2019-01-24T08:49:25.985Z,6.92
2019-01-24T08:51:58.480Z,6.10
2019-01-24T08:54:31.027Z,6.87
2019-01-24T08:57:03.569Z,6.50
2019-01-24T08:59:36.089Z,6.80
2019-01-24T09:02:09.856Z,6.12
2019-01-24T09:04:42.317Z,6.40
2019-01-24T09:07:14.855Z,6.00
2019-01-24T09:09:47.330Z,6.55
2019-01-24T09:12:19.887Z,6.67
2019-01-24T09:14:52.753Z,5.87
2019-01-24T09:17:25.261Z,6.55
2019-01-24T09:19:57.754Z,6.42
2019-01-24T09:22:30.313Z,6.10
2019-01-24T09:25:02.807Z,6.17
2019-01-24T09:27:35.307Z,5.90
2019-01-24T09:30:07.887Z,6.60
2019-01-24T09:32:40.393Z,6.40
2019-01-24T09:35:13.704Z,6.37
2019-01-24T09:37:46.163Z,5.78
2019-01-24T09:40:20.014Z,6.00
2019-01-24T09:42:52.534Z,5.92
2019-01-24T09:45:24.643Z,6.42
2019-01-24T09:47:57.247Z,6.25
2019-01-24T09:50:30.070Z,5.95
2019-01-24T09:53:02.563Z,6.17
2019-01-24T09:55:35.178Z,6.60
2019-01-24T09:58:06.690Z,5.97
2019-01-24T10:00:39.321Z,6.08
2019-01-24T10:03:11.818Z,5.67
2019-01-24T10:05:44.287Z,6.80
2019-01-24T10:08:16.829Z,5.95
2019-01-24T10:10:49.296Z,6.42
2019-01-24T10:13:21.831Z,5.90
2019-01-24T10:15:54.397Z,6.45
2019-01-24T10:18:26.935Z,6.10
2019-01-24T10:20:59.784Z,6.58
2019-01-24T10:23:32.248Z,6.33
2019-01-24T10:26:03.818Z,5.70
2019-01-24T10:28:36.333Z,6.15
2019-01-24T10:31:08.949Z,7.20
2019-01-24T10:33:41.406Z,6.00
2019-01-24T10:36:13.977Z,6.05
2019-01-24T10:38:46.876Z,6.40
2019-01-24T10:41:19.390Z,6.30
2019-01-24T10:43:51.895Z,6.33
2019-01-24T10:46:23.522Z,6.10
2019-01-24T10:48:55.999Z,5.67
2019-01-24T10:51:28.611Z,6.15
2019-01-24T10:54:01.102Z,6.45
2019-01-24T10:56:33.656Z,6.67
2019-01-24T10:59:06.127Z,6.97
2019-01-24T11:01:38.762Z,6.50
2019-01-24T11:04:11.258Z,6.20
2019-01-24T11:06:42.785Z,6.90
2019-01-24T11:09:15.294Z,6.17
2019-01-24T11:11:46.875Z,6.35
2019-01-24T11:14:19.407Z,6.33
2019-01-24T11:16:51.037Z,7.10
2019-01-24T11:19:23.532Z,6.70
2019-01-24T11:21:55.067Z,6.40
2019-01-24T11:24:28.159Z,6.37
2019-01-24T11:27:00.617Z,6.78
2019-01-24T11:29:33.167Z,6.03
2019-01-24T11:32:07.809Z,6.50
2019-01-24T11:34:40.343Z,6.92
2019-01-24T11:37:12.935Z,6.60
2019-01-24T11:39:45.452Z,6.30
2019-01-24T11:42:16.965Z,6.55
2019-01-24T11:44:48.520Z,6.25
2019-01-24T11:47:21.573Z,5.75
2019-01-24T11:49:54.099Z,6.35
2019-01-24T11:52:26.625Z,6.35
2019-01-24T11:54:59.183Z,5.72
2019-01-24T11:57:31.730Z,6.45
2019-01-24T12:00:04.227Z,6.33
2019-01-24T12:02:39.815Z,6.30
2019-01-24T12:05:12.608Z,6.17
2019-01-24T12:07:45.106Z,6.62
2019-01-24T12:10:18.008Z,6.37
2019-01-24T12:12:50.523Z,6.97
2019-01-24T12:15:25.453Z,6.45
2019-01-24T12:17:58.003Z,6.03
2019-01-24T12:20:30.489Z,6.80
2019-01-24T12:23:02.928Z,6.80
2019-01-24T12:25:35.466Z,6.55
2019-01-24T12:28:06.979Z,6.62
2019-01-24T12:30:39.963Z,5.97
2019-01-24T12:33:12.472Z,6.33
2019-01-24T12:35:43.943Z,6.15
2019-01-24T12:38:16.511Z,6.50
2019-01-24T12:40:48.577Z,6.58
2019-01-24T12:43:21.175Z,7.00
2019-01-24T12:45:53.676Z,6.22
2019-01-24T12:48:26.193Z,6.20
2019-01-24T12:51:01.520Z,6.33
2019-01-24T12:53:34.027Z,5.45
2019-01-24T12:56:06.482Z,5.87
2019-01-24T12:58:38.084Z,6.25
2019-01-24T13:01:10.593Z,5.92
2019-01-24T13:03:43.102Z,6.22
2019-01-24T13:06:15.609Z,5.92
2019-01-24T13:08:47.127Z,6.20
2019-01-24T13:11:19.628Z,6.40
2019-01-24T13:13:52.171Z,6.30
2019-01-24T13:16:24.664Z,7.08
2019-01-24T13:18:57.163Z,5.85
2019-01-24T13:21:29.668Z,7.00
2019-01-24T13:24:01.188Z,5.67
2019-01-24T13:26:33.695Z,6.35
2019-01-24T13:29:06.188Z,5.95
2019-01-24T13:31:37.701Z,6.30
2019-01-24T13:34:10.223Z,6.20
2019-01-24T13:36:41.732Z,6.20
2019-01-24T13:39:14.564Z,6.08
2019-01-24T13:41:47.105Z,6.05
2019-01-24T13:44:19.672Z,6.37
2019-01-24T13:46:52.207Z,6.10
2019-01-24T13:49:24.776Z,6.40
2019-01-24T13:51:57.266Z,6.40
2019-01-24T13:54:29.777Z,6.47
2019-01-24T13:57:02.303Z,6.50
2019-01-24T13:59:33.868Z,6.60
2019-01-24T14:02:06.370Z,6.60
2019-01-24T14:04:37.966Z,6.95
2019-01-24T14:07:10.416Z,6.17
2019-01-24T14:09:42.992Z,6.78
2019-01-24T14:12:15.536Z,6.08
2019-01-24T14:14:47.067Z,7.03
2019-01-24T14:17:19.585Z,6.42
2019-01-24T14:19:52.264Z,6.35
2019-01-24T14:22:23.767Z,6.72
2019-01-24T14:24:56.276Z,6.58
2019-01-24T14:27:28.768Z,6.58
2019-01-24T14:30:01.275Z,6.35
2019-01-24T14:32:33.773Z,5.95
2019-01-24T14:35:06.472Z,6.00
2019-01-24T14:37:39.926Z,6.83
2019-01-24T14:40:13.955Z,6.47
2019-01-24T14:42:46.590Z,6.17
2019-01-24T14:45:19.204Z,5.60
2019-01-24T14:47:51.655Z,5.62
2019-01-24T14:50:25.447Z,6.53
2019-01-24T14:52:57.946Z,6.45
2019-01-24T14:55:30.507Z,6.22
2019-01-24T14:58:02.017Z,6.45
2019-01-24T15:00:42.075Z,6.28
2019-01-24T15:03:14.526Z,5.60
2019-01-24T15:05:47.365Z,6.00
2019-01-24T15:08:19.904Z,6.83
2019-01-24T15:10:51.481Z,5.97
2019-01-24T15:13:24.021Z,6.40
2019-01-24T15:15:56.507Z,6.15
2019-01-24T15:18:29.064Z,6.17
2019-01-24T15:21:02.801Z,6.05
2019-01-24T15:23:35.349Z,5.87
2019-01-24T15:26:06.880Z,5.90
2019-01-24T15:28:39.378Z,5.83
2019-01-24T15:31:11.885Z,6.05
2019-01-24T15:33:44.375Z,6.50
2019-01-24T15:36:16.896Z,6.92
2019-01-24T15:38:49.393Z,6.03
2019-01-24T15:41:21.968Z,6.22
2019-01-24T15:43:55.998Z,5.92
2019-01-24T15:46:28.652Z,5.83
2019-01-24T15:49:00.170Z,6.17
2019-01-24T15:51:32.844Z,5.67
2019-01-24T15:54:05.390Z,6.03
2019-01-24T15:56:38.030Z,6.22
2019-01-24T15:59:10.550Z,5.60
2019-01-24T16:01:43.135Z,6.22
2019-01-24T16:04:19.776Z,5.83
2019-01-24T16:06:49.289Z,6.53
2019-01-24T16:09:21.776Z,6.17
2019-01-24T16:11:53.259Z,5.60
2019-01-24T16:14:25.800Z,6.40
2019-01-24T16:16:58.362Z,6.35
2019-01-24T16:19:30.893Z,5.72
2019-01-24T16:22:03.396Z,6.85
2019-01-24T16:24:35.896Z,7.30
2019-01-24T16:27:08.415Z,6.30
2019-01-24T16:29:40.884Z,6.70
2019-01-24T16:32:12.439Z,6.70
2019-01-24T16:34:44.923Z,6.65
2019-01-24T16:37:17.485Z,6.40
2019-01-24T16:39:49.993Z,6.30
2019-01-24T16:42:21.531Z,6.28
2019-01-24T16:44:54.042Z,6.95
2019-01-24T16:47:25.554Z,6.53
2019-01-24T16:49:58.023Z,6.10
2019-01-24T16:52:30.574Z,6.95
2019-01-24T16:55:03.028Z,6.53
2019-01-24T16:57:35.613Z,6.87
2019-01-24T17:00:10.319Z,6.53
2019-01-24T17:02:42.833Z,6.03
2019-01-24T17:05:15.318Z,6.03
2019-01-24T17:07:48.086Z,6.22
2019-01-24T17:10:25.075Z,6.10
2019-01-24T17:12:57.572Z,6.55
2019-01-24T17:15:30.077Z,6.12
2019-01-24T17:18:02.709Z,5.72
2019-01-24T17:20:35.336Z,6.75
2019-01-24T17:23:07.911Z,6.20
2019-01-24T17:25:40.424Z,6.20
2019-01-24T17:28:12.928Z,6.53
2019-01-24T17:30:45.489Z,6.60
2019-01-24T17:33:18.010Z,6.15
2019-01-24T17:35:50.496Z,6.20
2019-01-24T17:38:23.840Z,6.33
2019-01-24T17:40:56.043Z,6.50
2019-01-24T17:43:28.664Z,6.08
2019-01-24T17:46:01.137Z,6.53
2019-01-24T17:48:32.696Z,5.58
2019-01-24T17:51:05.184Z,6.47
2019-01-24T17:53:37.706Z,6.30
2019-01-24T17:56:11.443Z,6.37
2019-01-24T17:58:43.954Z,6.25
2019-01-24T18:06:38.649Z,6.72
2019-01-24T18:09:11.145Z,6.62
2019-01-24T18:11:43.647Z,6.75
2019-01-24T18:14:16.148Z,6.90
2019-01-24T18:16:48.755Z,6.65
2019-01-24T18:19:21.249Z,6.25
2019-01-24T18:21:52.879Z,6.00
2019-01-24T18:24:25.380Z,6.45
2019-01-24T18:26:58.995Z,7.05
2019-01-24T18:29:30.804Z,7.00
2019-01-24T18:32:02.427Z,6.62
2019-01-24T18:34:34.930Z,6.50
2019-01-24T18:37:07.415Z,6.87
2019-01-24T18:39:38.933Z,6.17
2019-01-24T18:42:11.446Z,6.78
2019-01-24T18:44:43.980Z,6.25
2019-01-24T18:47:16.502Z,6.33
2019-01-24T18:49:49.065Z,6.65
2019-01-24T18:52:21.688Z,6.55
2019-01-24T18:54:54.187Z,6.70
2019-01-24T18:57:26.649Z,7.22
2019-01-24T18:59:59.180Z,7.58
2019-01-24T19:02:31.655Z,6.58
2019-01-24T19:05:04.223Z,6.58
2019-01-24T19:07:36.689Z,7.30
2019-01-24T19:10:11.734Z,6.87
2019-01-24T19:12:44.209Z,7.15
2019-01-24T19:15:19.520Z,7.28
2019-01-24T19:17:52.054Z,6.65
2019-01-24T19:20:23.582Z,7.03
2019-01-24T19:22:56.075Z,6.97
2019-01-24T19:25:28.573Z,6.70
2019-01-24T19:28:01.095Z,6.97
2019-01-24T19:30:35.807Z,7.42
2019-01-24T19:33:08.360Z,7.03
2019-01-24T19:35:42.401Z,6.75
2019-01-24T19:38:14.904Z,7.30
2019-01-24T19:40:47.430Z,6.97
2019-01-24T19:43:19.950Z,7.08
2019-01-24T19:45:52.424Z,8.00
2019-01-24T19:48:24.923Z,7.87
2019-01-24T19:50:57.420Z,7.17
2019-01-24T19:53:28.949Z,7.03
2019-01-24T19:56:01.438Z,7.85
2019-01-24T19:58:33.020Z,7.20
2019-01-24T20:01:05.504Z,7.22
2019-01-24T20:03:37.977Z,7.92
2019-01-24T20:06:10.478Z,8.18
2019-01-24T20:08:43.003Z,7.80
2019-01-24T20:11:15.530Z,7.10
2019-01-24T20:13:47.988Z,7.70
2019-01-24T20:16:20.523Z,7.60
2019-01-24T20:18:53.010Z,8.43
2019-01-24T20:21:25.585Z,8.10
2019-01-24T20:23:57.069Z,7.80
2019-01-24T20:26:29.596Z,8.13
2019-01-24T20:29:02.082Z,8.20
2019-01-24T20:31:34.586Z,7.58
2019-01-24T20:34:07.421Z,8.48
2019-01-24T20:36:38.921Z,8.28
2019-01-24T20:39:11.627Z,8.03
2019-01-24T20:41:43.130Z,8.03
2019-01-24T20:44:15.636Z,8.33
2019-01-24T20:46:48.172Z,9.23
2019-01-24T20:49:19.709Z,8.93
2019-01-24T20:51:52.195Z,8.58
2019-01-24T20:54:23.810Z,8.63
2019-01-24T20:56:56.293Z,7.95
2019-01-24T20:59:28.852Z,8.10
2019-01-24T21:02:00.332Z,8.78
2019-01-24T21:04:32.887Z,7.78
2019-01-24T21:07:04.410Z,8.38
2019-01-24T21:09:36.885Z,7.80
2019-01-24T21:12:09.416Z,7.42
2019-01-24T21:14:41.931Z,7.78
2019-01-24T21:17:14.425Z,7.90
2019-01-24T21:19:45.960Z,7.75
2019-01-24T21:22:17.493Z,7.87
2019-01-24T21:24:50.034Z,7.35
2019-01-24T21:27:22.522Z,12.37
2019-01-24T21:29:55.041Z,12.35
2019-01-24T21:32:27.527Z,11.30
2019-01-24T21:34:59.051Z,11.30
2019-01-24T21:37:31.561Z,10.25
2019-01-24T21:40:04.066Z,10.35
2019-01-24T21:42:36.611Z,10.60
2019-01-24T21:45:11.282Z,8.80
2019-01-24T21:47:42.839Z,9.25
2019-01-24T21:50:19.938Z,9.33
2019-01-24T21:52:52.431Z,9.13
2019-01-24T21:55:23.980Z,8.95
2019-01-24T21:57:58.926Z,8.63
2019-01-24T22:00:30.825Z,7.92
2019-01-24T22:03:03.342Z,7.85
2019-01-24T22:05:35.922Z,8.30
2019-01-24T22:08:07.488Z,9.05
2019-01-24T22:10:39.993Z,8.03
2019-01-24T22:13:12.521Z,7.33
2019-01-24T22:15:46.022Z,7.53
2019-01-24T22:18:18.500Z,7.58
2019-01-24T22:20:55.578Z,7.50
2019-01-24T22:23:23.761Z,7.58
2019-01-24T22:25:56.262Z,6.97
2019-01-24T22:28:27.734Z,7.92
2019-01-24T22:31:00.868Z,7.10
2019-01-24T22:33:33.385Z,6.97
2019-01-24T22:36:05.999Z,7.42
2019-01-24T22:38:38.553Z,7.65
2019-01-24T22:41:11.084Z,7.17
2019-01-24T22:43:43.584Z,6.75
2019-01-24T22:46:15.111Z,6.95
2019-01-24T22:48:46.647Z,6.85
2019-01-24T22:51:19.122Z,7.37
2019-01-24T22:53:50.684Z,7.97
2019-01-24T22:56:23.177Z,7.40
2019-01-24T22:58:55.697Z,7.85
2019-01-24T23:01:36.801Z,7.45
2019-01-24T23:04:10.490Z,8.55
2019-01-24T23:06:43.003Z,9.05
2019-01-24T23:09:15.608Z,9.10
2019-01-24T23:11:48.141Z,9.10
2019-01-24T23:14:20.600Z,9.75
2019-01-24T23:16:53.158Z,9.55
2019-01-24T23:19:25.646Z,9.85
2019-01-24T23:21:58.168Z,10.50
2019-01-24T23:24:29.671Z,9.88
2019-01-24T23:27:02.470Z,11.10
2019-01-24T23:29:34.978Z,10.80
2019-01-24T23:32:07.540Z,10.82
2019-01-24T23:34:40.073Z,11.88
2019-01-24T23:37:12.656Z,11.75
2019-01-24T23:39:44.104Z,12.33
2019-01-24T23:42:15.619Z,12.70
2019-01-24T23:44:48.189Z,12.63
2019-01-24T23:47:20.715Z,12.85
2019-01-24T23:49:54.648Z,14.35
2019-01-24T23:52:27.160Z,13.28
2019-01-24T23:54:58.742Z,14.25
2019-01-24T23:57:31.284Z,13.22
